createdAt,value
2023-05-20T00:07:40.204Z,2664.39844
2023-05-20T00:22:42.366Z,3168.64966
2023-05-20T00:37:44.411Z,2601.50269
2023-05-20T00:52:46.501Z,2403.05542
2023-05-20T01:07:48.654Z,4473.19629
2023-05-20T01:22:50.770Z,5635.68555
2023-05-20T01:37:52.844Z,4976.36328
2023-05-20T01:52:54.976Z,4104.49658
2023-05-20T02:07:57.052Z,2064.71899
2023-05-20T02:22:59.101Z,1460.70203
2023-05-20T02:38:01.219Z,1213.45618
2023-05-20T02:53:03.327Z,927.17163
2023-05-20T03:08:05.439Z,409.90747
2023-05-20T03:23:07.558Z,135.55141
2023-05-20T03:38:09.641Z,42.29204
2023-05-20T03:53:11.662Z,6.50647
2023-05-20T04:08:13.885Z,1.08441
2023-05-20T04:23:15.953Z,0
2023-05-20T04:38:18.087Z,0
2023-05-20T04:53:20.124Z,0
2023-05-20T05:08:22.214Z,0
2023-05-20T05:23:24.291Z,0
2023-05-20T05:38:26.343Z,0
2023-05-20T05:53:28.495Z,0
2023-05-20T06:08:30.556Z,0
2023-05-20T06:23:32.625Z,0
2023-05-20T06:38:34.784Z,0
2023-05-20T06:53:37.442Z,0
2023-05-20T07:08:39.524Z,0
2023-05-20T07:23:41.751Z,0
2023-05-20T07:38:53.226Z,0
2023-05-20T07:54:04.514Z,0
2023-05-20T08:09:06.604Z,0
2023-05-20T08:24:08.767Z,0
2023-05-20T08:39:10.810Z,0
2023-05-20T08:54:12.890Z,0
2023-05-20T09:09:14.896Z,0
2023-05-20T09:24:17.013Z,0
2023-05-20T09:39:19.134Z,0
2023-05-20T09:54:21.277Z,0
2023-05-20T10:09:23.327Z,0
2023-05-20T10:24:25.423Z,0
2023-05-20T10:39:27.521Z,0
2023-05-20T10:54:29.596Z,0
2023-05-20T11:09:31.707Z,0
2023-05-20T11:24:33.779Z,1.08441
2023-05-20T11:39:35.904Z,4.33765
2023-05-20T11:54:37.966Z,69.40232
2023-05-20T12:09:40.087Z,121.45406
2023-05-20T12:24:42.158Z,194.10962
2023-05-20T12:39:44.220Z,272.18723
2023-05-20T12:54:46.290Z,453.28391
2023-05-20T13:09:48.374Z,808.97083
2023-05-20T13:24:50.452Z,1923.74561
2023-05-20T13:39:52.506Z,2872.60547
2023-05-20T13:54:54.606Z,2831.39771
2023-05-20T14:09:56.725Z,3590.4856
2023-05-20T14:24:58.815Z,4743.21484
2023-05-20T14:40:00.990Z,3885.44556
2023-05-20T14:55:03.036Z,4356.08008
2023-05-20T15:10:05.091Z,4591.39746
2023-05-20T15:25:07.152Z,6842.63525
2023-05-20T15:40:09.252Z,8900.84766
2023-05-20T15:55:11.285Z,9476.66992
2023-05-20T16:10:13.346Z,11675.85645
2023-05-20T16:25:15.558Z,10955.80664
2023-05-20T16:40:17.759Z,5752.80176
2023-05-20T16:55:19.850Z,5538.08838
2023-05-20T17:10:21.904Z,13512.84863
2023-05-20T17:25:23.932Z,13054.14258
2023-05-20T17:40:26.280Z,12932.68848
2023-05-20T17:55:28.472Z,14403.15039
2023-05-20T18:10:30.469Z,5036.00586
2023-05-20T18:25:32.580Z,13238.49316
2023-05-20T18:40:35.017Z,13294.88184
2023-05-20T18:55:37.314Z,13368.62207
2023-05-20T19:10:39.470Z,12163.84082
2023-05-20T19:25:41.566Z,12277.7041
2023-05-20T19:40:43.589Z,12219.14648
2023-05-20T19:55:45.698Z,3834.47827
2023-05-20T20:10:47.735Z,2935.50122
2023-05-20T20:25:49.789Z,2727.29443
2023-05-20T20:40:51.922Z,7839.20898
2023-05-20T20:55:54.089Z,11248.59766
2023-05-20T21:10:56.215Z,13729.73145
2023-05-20T21:25:58.309Z,14729.55859
2023-05-20T21:41:00.413Z,14428.0918
2023-05-20T21:56:02.520Z,8339.12305
2023-05-20T22:11:04.562Z,3482.04468
2023-05-20T22:26:06.666Z,3295.52588
2023-05-20T22:41:08.762Z,3535.18066
2023-05-20T22:56:10.973Z,3410.47339
2023-05-20T23:11:13.041Z,2487.6394
2023-05-20T23:26:15.094Z,1944.34937
2023-05-20T23:41:17.203Z,1561.55225
2023-05-20T23:56:19.238Z,2370.52295
